Time;durP1;ratioP1;P1;durP2;ratioP2;P2;SDS_P1;SDS_P2;PMS_P1;PMS_P2;Temp;Humidity;BMP_temperature;BMP_pressure;BME280_temperature;BME280_humidity;BME280_pressure;Samples;Min_cycle;Max_cycle;Signal;HPM_P1;HPM_P2
2022/06/06 00:01:46;;;;;;;1999.90;999.90;;;17.10;99.90;;;;;;5072013;28;20409;-71
2022/06/06 00:04:12;;;;;;;1999.90;999.90;;;17.20;99.90;;;;;;5071719;28;20407;-72
2022/06/06 00:06:41;;;;;;;1999.90;999.90;;;17.20;99.90;;;;;;5071933;28;20434;-72
2022/06/06 00:09:08;;;;;;;1999.90;999.90;;;17.20;99.90;;;;;;5071931;28;20457;-72
2022/06/06 00:11:35;;;;;;;1999.90;999.90;;;17.20;99.90;;;;;;5072048;28;20421;-71
2022/06/06 00:14:01;;;;;;;1999.90;999.90;;;17.20;99.90;;;;;;5071697;28;20397;-72
2022/06/06 00:16:26;;;;;;;1999.90;999.90;;;17.20;99.90;;;;;;5071838;28;20427;-71
2022/06/06 00:18:52;;;;;;;1999.90;999.90;;;17.20;99.90;;;;;;5071873;28;20163;-71
2022/06/06 00:21:18;;;;;;;1999.90;999.90;;;17.20;99.90;;;;;;5072053;28;20175;-72
2022/06/06 00:23:44;;;;;;;1999.90;999.90;;;17.20;99.90;;;;;;5071789;28;20458;-71
2022/06/06 00:26:13;;;;;;;1999.90;999.90;;;17.10;99.90;;;;;;5071606;28;20432;-72
2022/06/06 00:28:40;;;;;;;1999.90;999.90;;;17.10;99.90;;;;;;5071742;28;20554;-72
2022/06/06 00:36:37;;;;;;;1999.90;999.90;;;17.00;99.90;;;;;;5071870;28;20502;-72
2022/06/06 00:39:04;;;;;;;1999.90;999.90;;;17.00;99.90;;;;;;5071676;28;20402;-72
2022/06/06 00:41:30;;;;;;;1999.90;999.90;;;17.00;99.90;;;;;;5071743;28;20428;-72
2022/06/06 00:44:09;;;;;;;1999.90;999.90;;;17.00;99.90;;;;;;5071541;28;20417;-72
2022/06/06 00:46:39;;;;;;;1999.90;999.90;;;17.00;99.90;;;;;;5071526;28;20669;-72
2022/06/06 00:49:08;;;;;;;1999.90;999.90;;;17.00;99.90;;;;;;5071593;28;20566;-72
2022/06/06 00:51:35;;;;;;;1999.90;999.90;;;17.00;99.90;;;;;;5074345;28;20453;-72
2022/06/06 00:54:02;;;;;;;1999.90;999.90;;;17.00;99.90;;;;;;5075177;28;20394;-72
2022/06/06 00:56:42;;;;;;;1999.90;999.90;;;16.90;99.90;;;;;;5075405;28;20416;-72
2022/06/06 00:59:20;;;;;;;1999.90;999.90;;;16.80;99.90;;;;;;5075411;28;20433;-72
2022/06/06 01:01:51;;;;;;;1999.90;999.90;;;16.80;99.90;;;;;;5075378;28;20463;-72
2022/06/06 01:04:20;;;;;;;1999.90;999.90;;;16.80;99.90;;;;;;5074982;28;20442;-71
2022/06/06 01:06:47;;;;;;;1999.90;999.90;;;16.80;99.90;;;;;;5075087;28;20784;-72
2022/06/06 01:09:16;;;;;;;1999.90;999.90;;;16.80;99.90;;;;;;5075259;28;20903;-71
2022/06/06 01:12:04;;;;;;;1999.90;999.90;;;16.80;99.90;;;;;;5075142;28;20808;-72
2022/06/06 01:14:37;;;;;;;1999.90;999.90;;;16.80;99.90;;;;;;5074761;28;20405;-72
2022/06/06 01:17:11;;;;;;;1999.90;999.90;;;16.80;99.90;;;;;;5075004;28;20763;-72
2022/06/06 01:19:52;;;;;;;1999.90;999.90;;;16.80;99.90;;;;;;5075226;28;20480;-72
2022/06/06 01:22:44;;;;;;;1999.90;999.90;;;16.80;99.90;;;;;;5074992;28;20407;-72
2022/06/06 01:25:47;;;;;;;1999.90;999.90;;;16.80;99.90;;;;;;5074737;28;20393;-72
2022/06/06 01:28:44;;;;;;;1999.90;999.90;;;16.80;99.90;;;;;;5074803;28;20405;-72
2022/06/06 01:31:25;;;;;;;1999.90;999.90;;;16.80;99.90;;;;;;5074923;28;20406;-72
2022/06/06 01:33:57;;;;;;;1999.90;999.90;;;16.80;99.90;;;;;;5074695;28;20399;-72
2022/06/06 01:36:27;;;;;;;1999.90;999.90;;;16.80;99.90;;;;;;5074336;28;20449;-72
2022/06/06 01:38:53;;;;;;;1999.90;999.90;;;16.80;99.90;;;;;;5074705;28;20398;-72
2022/06/06 01:41:50;;;;;;;1999.90;999.90;;;16.80;99.90;;;;;;5074639;28;20411;-72
2022/06/06 01:44:25;;;;;;;1999.90;999.90;;;16.80;99.90;;;;;;5073979;28;20409;-72
2022/06/06 01:46:51;;;;;;;1999.90;999.90;;;16.80;99.90;;;;;;5074552;28;20931;-72
2022/06/06 01:49:18;;;;;;;1999.90;999.90;;;16.80;99.90;;;;;;5074459;28;20498;-72
2022/06/06 01:51:58;;;;;;;1999.90;999.90;;;16.90;99.90;;;;;;5074418;28;20769;-71
2022/06/06 01:54:23;;;;;;;1999.90;999.90;;;16.80;99.90;;;;;;5074089;28;21063;-72
2022/06/06 01:56:49;;;;;;;1999.90;999.90;;;16.80;99.90;;;;;;5074165;28;20559;-72
2022/06/06 01:59:15;;;;;;;1999.90;999.90;;;16.70;99.90;;;;;;5074248;28;20203;-72
2022/06/06 02:01:40;;;;;;;1999.90;999.90;;;16.80;99.90;;;;;;5073707;28;20175;-72
2022/06/06 02:04:06;;;;;;;1999.90;999.90;;;16.70;99.90;;;;;;5073649;28;20179;-72
2022/06/06 02:06:32;;;;;;;1999.90;999.90;;;16.70;99.90;;;;;;5074051;28;20197;-72
2022/06/06 02:08:57;;;;;;;1999.90;999.90;;;16.70;99.90;;;;;;5074119;28;20298;-72
2022/06/06 02:11:23;;;;;;;1999.90;999.90;;;16.70;99.90;;;;;;5074056;28;20355;-72
2022/06/06 02:13:48;;;;;;;1999.90;999.90;;;16.60;99.90;;;;;;5073995;28;20162;-71
2022/06/06 02:16:15;;;;;;;1999.90;999.90;;;16.60;99.90;;;;;;5073664;28;20190;-72
2022/06/06 02:18:40;;;;;;;1999.90;999.90;;;16.60;99.90;;;;;;5073927;28;20174;-71
2022/06/06 02:21:07;;;;;;;1999.90;999.90;;;16.50;99.90;;;;;;5073873;28;20410;-72
2022/06/06 02:23:33;;;;;;;1999.90;999.90;;;16.50;99.90;;;;;;5073884;28;20173;-72
2022/06/06 02:25:59;;;;;;;1999.90;999.90;;;16.50;99.90;;;;;;5073380;28;20423;-72
2022/06/06 02:28:25;;;;;;;1999.90;999.90;;;16.50;99.90;;;;;;5073947;28;20409;-72
2022/06/06 02:30:51;;;;;;;1999.90;999.90;;;16.50;99.90;;;;;;5073734;28;20296;-72
2022/06/06 02:33:16;;;;;;;1999.90;999.90;;;16.40;99.90;;;;;;5073686;28;20431;-72
2022/06/06 02:35:42;;;;;;;1999.90;999.90;;;16.40;99.90;;;;;;5073081;28;20701;-72
2022/06/06 02:38:10;;;;;;;1999.90;999.90;;;16.50;99.90;;;;;;5073516;28;20209;-72
2022/06/06 02:40:36;;;;;;;1999.90;999.90;;;16.50;99.90;;;;;;5073473;28;20408;-72
2022/06/06 02:43:02;;;;;;;1999.90;999.90;;;16.50;99.90;;;;;;5073418;28;20923;-72
2022/06/06 02:45:28;;;;;;;1999.90;999.90;;;16.60;99.90;;;;;;5073094;28;20421;-72
2022/06/06 02:47:56;;;;;;;1999.90;999.90;;;16.50;99.90;;;;;;5073356;28;20417;-72
2022/06/06 02:50:25;;;;;;;1999.90;999.90;;;16.50;99.90;;;;;;5073202;28;20220;-72
2022/06/06 02:52:51;;;;;;;1999.90;999.90;;;16.60;99.90;;;;;;5073125;28;20443;-72
2022/06/06 02:55:17;;;;;;;1999.90;999.90;;;16.60;99.90;;;;;;5072933;28;20458;-72
2022/06/06 02:57:47;;;;;;;1999.90;999.90;;;16.60;99.90;;;;;;5073094;28;20494;-72
2022/06/06 03:00:16;;;;;;;1999.90;999.90;;;16.60;99.90;;;;;;5073106;28;20410;-72
2022/06/06 03:02:42;;;;;;;1999.90;999.90;;;16.50;99.90;;;;;;5072939;28;20401;-72
2022/06/06 03:05:09;;;;;;;1999.90;999.90;;;16.50;99.90;;;;;;5072619;28;20451;-71
2022/06/06 03:07:43;;;;;;;1999.90;999.90;;;16.60;99.90;;;;;;5072957;28;20575;-72
2022/06/06 03:10:41;;;;;;;1999.90;999.90;;;16.60;99.90;;;;;;5072827;28;20457;-72
2022/06/06 03:13:35;;;;;;;1999.90;999.90;;;16.60;99.90;;;;;;5058615;28;20496;-72
2022/06/06 03:22:38;;;;;;;1999.90;999.90;;;16.60;99.90;;;;;;5072792;28;20392;-71
2022/06/06 03:25:14;;;;;;;1999.90;999.90;;;16.60;99.90;;;;;;5072204;28;20394;-72
2022/06/06 03:28:15;;;;;;;1999.90;999.90;;;16.60;99.90;;;;;;5072635;28;20958;-72
2022/06/06 03:31:07;;;;;;;1999.90;999.90;;;16.60;99.90;;;;;;5072497;28;20975;-72
2022/06/06 03:34:01;;;;;;;1999.90;999.90;;;16.60;99.90;;;;;;5072464;28;20404;-72
2022/06/06 03:36:50;;;;;;;1999.90;999.90;;;16.60;99.90;;;;;;5072684;28;20441;-72
2022/06/06 03:39:29;;;;;;;1999.90;999.90;;;16.50;99.90;;;;;;5061645;28;20423;-72
2022/06/06 03:42:19;;;;;;;1999.90;999.90;;;16.40;99.90;;;;;;5072366;28;20499;-72
2022/06/06 03:45:16;;;;;;;1999.90;999.90;;;16.40;99.90;;;;;;5072062;28;20400;-72
2022/06/06 03:47:56;;;;;;;1999.90;999.90;;;16.50;99.90;;;;;;5072280;28;20415;-72
2022/06/06 03:50:25;;;;;;;1999.90;999.90;;;16.40;99.90;;;;;;5072286;28;20452;-72
2022/06/06 03:53:04;;;;;;;1999.90;999.90;;;16.40;99.90;;;;;;5072215;28;20411;-72
2022/06/06 03:55:57;;;;;;;1999.90;999.90;;;16.40;99.90;;;;;;5071825;28;20959;-72
2022/06/06 03:58:27;;;;;;;1999.90;999.90;;;16.30;99.90;;;;;;5072182;28;20398;-72
2022/06/06 04:00:56;;;;;;;1999.90;999.90;;;16.40;99.90;;;;;;5072071;28;20401;-72
2022/06/06 04:03:24;;;;;;;1999.90;999.90;;;16.30;99.90;;;;;;5071993;28;20412;-72
2022/06/06 04:05:51;;;;;;;1999.90;999.90;;;16.30;99.90;;;;;;5071612;28;20419;-72
2022/06/06 04:08:16;;;;;;;1999.90;999.90;;;16.30;99.90;;;;;;5072197;28;20776;-72
2022/06/06 04:10:53;;;;;;;1999.90;999.90;;;16.30;99.90;;;;;;5071861;28;20452;-72
2022/06/06 04:13:30;;;;;;;1999.90;999.90;;;16.30;99.90;;;;;;5072021;28;20198;-72
2022/06/06 04:16:28;;;;;;;1999.90;999.90;;;16.40;99.90;;;;;;5071638;28;20458;-72
2022/06/06 04:19:32;;;;;;;1999.90;999.90;;;16.30;99.90;;;;;;5027279;28;20967;-72
2022/06/06 04:22:30;;;;;;;1999.90;999.90;;;16.20;99.90;;;;;;5071936;28;20756;-72
2022/06/06 04:25:35;;;;;;;1999.90;999.90;;;16.20;99.90;;;;;;5072674;28;20397;-72
2022/06/06 04:28:23;;;;;;;1999.90;999.90;;;16.10;99.90;;;;;;5074389;28;20417;-72
2022/06/06 04:31:00;;;;;;;1999.90;999.90;;;16.10;99.90;;;;;;5078427;28;20453;-72
2022/06/06 04:33:58;;;;;;;1999.90;999.90;;;16.10;99.90;;;;;;5078473;28;20397;-72
2022/06/06 04:36:46;;;;;;;1999.90;999.90;;;16.10;99.90;;;;;;5039949;28;20444;-72
2022/06/06 04:39:17;;;;;;;1999.90;999.90;;;16.00;99.90;;;;;;5078325;28;20409;-72
2022/06/06 04:42:01;;;;;;;1999.90;999.90;;;16.00;99.90;;;;;;5078639;28;20399;-72
2022/06/06 04:44:50;;;;;;;1999.90;999.90;;;16.00;99.90;;;;;;5078255;28;20776;-72
2022/06/06 04:47:41;;;;;;;1999.90;999.90;;;16.00;99.90;;;;;;5078258;28;20436;-72
2022/06/06 04:50:19;;;;;;;1999.90;999.90;;;16.00;99.90;;;;;;5077685;28;20551;-72
2022/06/06 04:52:59;;;;;;;1999.90;999.90;;;16.00;99.90;;;;;;5078453;28;20409;-72
2022/06/06 04:55:26;;;;;;;1999.90;999.90;;;16.00;99.90;;;;;;5077965;28;20420;-72
2022/06/06 04:57:55;;;;;;;1999.90;999.90;;;16.00;99.90;;;;;;5078219;28;20440;-72
2022/06/06 05:00:21;;;;;;;1999.90;999.90;;;16.00;99.90;;;;;;5078346;28;20419;-72
2022/06/06 05:02:47;;;;;;;1999.90;999.90;;;15.90;99.90;;;;;;5078347;28;20418;-72
2022/06/06 05:05:13;;;;;;;1999.90;999.90;;;15.90;99.90;;;;;;5060099;28;20423;-72
2022/06/06 05:08:04;;;;;;;1999.90;999.90;;;15.90;99.90;;;;;;5078166;28;20173;-73
2022/06/06 05:10:47;;;;;;;1999.90;999.90;;;15.90;99.90;;;;;;5078053;28;20186;-72
2022/06/06 05:13:16;;;;;;;1999.90;999.90;;;15.90;99.90;;;;;;5078058;28;20400;-72
2022/06/06 05:16:06;;;;;;;1999.90;999.90;;;15.90;99.90;;;;;;5077731;28;20496;-72
2022/06/06 05:18:44;;;;;;;1999.90;999.90;;;16.00;99.90;;;;;;5078098;28;20394;-72
2022/06/06 05:21:30;;;;;;;1999.90;999.90;;;16.00;99.90;;;;;;5078003;28;20393;-72
2022/06/06 05:24:08;;;;;;;1999.90;999.90;;;15.90;99.90;;;;;;5078058;28;20403;-72
2022/06/06 05:26:55;;;;;;;1999.90;999.90;;;16.00;99.90;;;;;;5077942;28;20417;-72
2022/06/06 05:29:38;;;;;;;1999.90;999.90;;;16.10;99.90;;;;;;5077880;28;20450;-72
2022/06/06 05:32:19;;;;;;;1999.90;999.90;;;16.20;99.90;;;;;;5077931;28;20398;-73
2022/06/06 05:35:01;;;;;;;1999.90;999.90;;;16.20;99.90;;;;;;5077700;28;20436;-72
2022/06/06 05:37:55;;;;;;;1999.90;999.90;;;16.20;99.90;;;;;;5074580;28;20471;-72
2022/06/06 05:40:35;;;;;;;1999.90;999.90;;;16.20;99.90;;;;;;5074702;28;20405;-72
2022/06/06 05:43:09;;;;;;;1999.90;999.90;;;16.20;99.90;;;;;;5074684;28;20452;-72
2022/06/06 05:45:38;;;;;;;1999.90;999.90;;;16.30;99.90;;;;;;5074244;28;20452;-72
2022/06/06 05:48:35;;;;;;;1999.90;999.90;;;16.40;99.90;;;;;;5074514;28;20432;-72
2022/06/06 05:51:14;;;;;;;1999.90;999.90;;;16.50;99.90;;;;;;5074459;28;20503;-72
2022/06/06 05:53:58;;;;;;;1999.90;999.90;;;16.50;99.90;;;;;;5074441;28;20451;-72
2022/06/06 05:56:49;;;;;;;1999.90;999.90;;;16.60;99.90;;;;;;5074233;28;20420;-72
2022/06/06 05:59:26;;;;;;;1999.90;999.90;;;16.60;99.90;;;;;;5074324;28;20467;-72
2022/06/06 06:02:00;;;;;;;1999.90;999.90;;;16.70;99.90;;;;;;5074330;28;20399;-72
2022/06/06 06:04:41;;;;;;;1999.90;999.90;;;16.80;99.90;;;;;;5074052;28;20882;-72
2022/06/06 06:07:19;;;;;;;1999.90;999.90;;;16.90;99.90;;;;;;5074110;28;20410;-72
2022/06/06 06:10:08;;;;;;;1999.90;999.90;;;16.90;99.90;;;;;;5074017;28;20543;-72
2022/06/06 06:12:52;;;;;;;1999.90;999.90;;;17.00;99.90;;;;;;5074110;28;20407;-72
2022/06/06 06:15:37;;;;;;;1999.90;999.90;;;17.10;99.90;;;;;;5073717;28;20787;-72
2022/06/06 06:18:11;;;;;;;1999.90;999.90;;;17.00;99.90;;;;;;5074031;28;20407;-72
2022/06/06 06:20:57;;;;;;;1999.90;999.90;;;17.00;99.90;;;;;;5073940;28;20393;-72
2022/06/06 06:23:26;;;;;;;1999.90;999.90;;;17.00;99.90;;;;;;5073855;28;20404;-72
2022/06/06 06:25:53;;;;;;;1999.90;999.90;;;16.80;99.90;;;;;;5073304;28;20430;-72
2022/06/06 06:28:18;;;;;;;1999.90;999.90;;;16.70;99.90;;;;;;5073790;28;20871;-72
2022/06/06 06:31:08;;;;;;;1999.90;999.90;;;16.70;99.90;;;;;;5073750;28;20466;-72
2022/06/06 06:33:47;;;;;;;1999.90;999.90;;;16.60;99.90;;;;;;5073724;28;20227;-72
2022/06/06 06:36:34;;;;;;;1999.90;999.90;;;16.70;99.90;;;;;;5073136;28;20973;-72
2022/06/06 06:39:30;;;;;;;1999.90;999.90;;;16.70;99.90;;;;;;5073666;28;20437;-72
2022/06/06 06:42:21;;;;;;;1999.90;999.90;;;16.90;99.90;;;;;;5073573;28;20915;-72
2022/06/06 06:45:08;;;;;;;1999.90;999.90;;;17.00;99.90;;;;;;5073268;28;20414;-73
2022/06/06 06:47:36;;;;;;;1999.90;999.90;;;17.10;99.90;;;;;;5073550;28;20431;-72
2022/06/06 06:50:22;;;;;;;1999.90;999.90;;;17.20;99.90;;;;;;5072913;28;20438;-72
2022/06/06 06:53:06;;;;;;;1999.90;999.90;;;17.20;99.90;;;;;;5073510;28;20499;-72
2022/06/06 06:55:37;;;;;;;1999.90;999.90;;;17.20;99.90;;;;;;5073018;28;20803;-72
2022/06/06 06:58:19;;;;;;;1999.90;999.90;;;17.30;99.90;;;;;;5073157;28;20401;-72
2022/06/06 07:00:55;;;;;;;1999.90;999.90;;;17.30;99.90;;;;;;5073095;28;20803;-72
2022/06/06 07:10:06;;;;;;;1999.90;999.90;;;17.30;99.90;;;;;;5072252;28;21054;-72
2022/06/06 07:12:41;;;;;;;1999.90;999.90;;;17.40;99.90;;;;;;5072885;28;20396;-72
2022/06/06 07:15:24;;;;;;;1999.90;999.90;;;17.40;99.90;;;;;;5072453;28;20443;-72
2022/06/06 07:17:53;;;;;;;1999.90;999.90;;;17.50;99.90;;;;;;5072891;28;20456;-72
2022/06/06 07:20:20;;;;;;;1999.90;999.90;;;17.60;99.90;;;;;;5072648;28;20390;-72
2022/06/06 07:23:04;;;;;;;1999.90;999.90;;;17.60;99.90;;;;;;5072716;28;20829;-72
2022/06/06 07:25:42;;;;;;;1999.90;999.90;;;17.60;99.90;;;;;;5072340;28;20427;-72
2022/06/06 07:28:14;;;;;;;1999.90;999.90;;;17.80;99.90;;;;;;5072602;28;20409;-72
2022/06/06 07:30:56;;;;;;;1999.90;999.90;;;17.80;99.90;;;;;;5072532;28;20459;-72
2022/06/06 07:33:49;;;;;;;1999.90;999.90;;;17.70;99.90;;;;;;5072607;28;20398;-73
2022/06/06 07:36:38;;;;;;;1999.90;999.90;;;17.80;99.90;;;;;;5071917;28;20451;-73
2022/06/06 07:39:32;;;;;;;1999.90;999.90;;;17.90;99.90;;;;;;5072459;28;20396;-72
2022/06/06 07:42:09;;;;;;;1999.90;999.90;;;18.10;99.90;;;;;;5072356;28;20414;-72
2022/06/06 07:44:41;;;;;;;1999.90;999.90;;;18.20;99.90;;;;;;5071927;28;20410;-73
2022/06/06 07:47:34;;;;;;;1999.90;999.90;;;18.50;99.90;;;;;;5072257;28;20432;-73
2022/06/06 07:50:21;;;;;;;1999.90;999.90;;;18.60;99.90;;;;;;5072151;28;20440;-72
2022/06/06 07:52:46;;;;;;;1999.90;999.90;;;18.70;99.90;;;;;;5072242;28;20402;-73
2022/06/06 07:55:31;;;;;;;1999.90;999.90;;;18.80;99.90;;;;;;5071874;28;20947;-72
2022/06/06 07:58:09;;;;;;;1999.90;999.90;;;18.70;99.90;;;;;;5072239;28;20209;-72
2022/06/06 08:00:35;;;;;;;1999.90;999.90;;;18.50;99.90;;;;;;5071595;28;20414;-73
2022/06/06 08:03:18;;;;;;;1999.90;999.90;;;18.50;99.90;;;;;;5072110;28;20499;-73
2022/06/06 08:06:16;;;;;;;1999.90;999.90;;;18.50;99.90;;;;;;5071723;28;20429;-72
2022/06/06 08:09:17;;;;;;;1999.90;999.90;;;18.50;99.90;;;;;;5071994;28;20408;-72
2022/06/06 08:12:31;;;;;;;1999.90;999.90;;;18.60;99.90;;;;;;5057439;28;20422;-72
2022/06/06 08:15:07;;;;;;;1999.90;999.90;;;18.70;99.90;;;;;;5054113;28;20417;-73
2022/06/06 08:17:41;;;;;;;1999.90;999.90;;;18.60;99.90;;;;;;5071976;28;20410;-73
2022/06/06 08:20:16;;;;;;;1999.90;999.90;;;18.60;99.90;;;;;;5071850;28;20395;-72
2022/06/06 08:22:44;;;;;;;1999.90;999.90;;;18.60;99.90;;;;;;5071881;28;20406;-72
2022/06/06 08:25:13;;;;;;;1999.90;999.90;;;18.70;99.90;;;;;;5071771;28;20397;-73
2022/06/06 08:27:42;;;;;;;1999.90;999.90;;;18.80;99.90;;;;;;5071803;28;20405;-72
2022/06/06 08:30:08;;;;;;;1999.90;999.90;;;18.90;99.90;;;;;;5071749;28;20450;-72
2022/06/06 08:32:35;;;;;;;1999.90;999.90;;;19.00;99.90;;;;;;5071813;28;20403;-73
2022/06/06 08:35:01;;;;;;;1999.90;999.90;;;19.00;99.90;;;;;;5071252;28;20953;-72
2022/06/06 08:37:59;;;;;;;1999.90;999.90;;;19.10;99.90;;;;;;5071708;28;20456;-72
2022/06/06 08:40:54;;;;;;;1999.90;999.90;;;19.50;99.90;;;;;;5071756;28;20165;-72
2022/06/06 08:43:47;;;;;;;1999.90;999.90;;;19.60;99.90;;;;;;5071780;28;20409;-72
2022/06/06 08:46:22;;;;;;;1999.90;999.90;;;19.60;99.90;;;;;;5071287;28;20484;-72
2022/06/06 08:49:10;;;;;;;1999.90;999.90;;;19.50;99.90;;;;;;5071483;28;20418;-72
2022/06/06 08:51:50;;;;;;;1999.90;999.90;;;19.60;99.90;;;;;;5071749;28;20398;-73
2022/06/06 08:55:00;;;;;;;1999.90;999.90;;;19.80;99.90;;;;;;5071495;28;20804;-73
2022/06/06 08:57:49;;;;;;;1999.90;999.90;;;19.80;99.90;;;;;;5071527;28;20398;-73
2022/06/06 09:00:22;;;;;;;1999.90;999.90;;;20.00;99.90;;;;;;5071731;28;20393;-72
2022/06/06 09:02:48;;;;;;;1999.90;999.90;;;20.20;99.90;;;;;;5071443;28;20396;-72
2022/06/06 09:05:24;;;;;;;1999.90;999.90;;;20.20;99.90;;;;;;5071025;28;20423;-72
2022/06/06 09:08:27;;;;;;;1999.90;999.90;;;19.90;99.90;;;;;;5071459;28;20171;-73
2022/06/06 09:11:25;;;;;;;1999.90;999.90;;;19.60;99.90;;;;;;5071347;28;20503;-73
2022/06/06 09:14:14;;;;;;;1999.90;999.90;;;19.30;99.90;;;;;;5075145;28;20886;-73
2022/06/06 09:17:11;;;;;;;1999.90;999.90;;;19.40;99.90;;;;;;5075234;28;20863;-73
2022/06/06 09:20:01;;;;;;;1999.90;999.90;;;19.40;99.90;;;;;;5069239;28;20423;-73
2022/06/06 09:23:04;;;;;;;1999.90;999.90;;;19.40;99.90;;;;;;5074961;28;20456;-72
2022/06/06 09:25:35;;;;;;;1999.90;999.90;;;19.50;99.90;;;;;;5074579;28;20457;-73
2022/06/06 09:28:11;;;;;;;1999.90;999.90;;;19.70;99.90;;;;;;5074987;28;20387;-73
2022/06/06 09:31:21;;;;;;;1999.90;999.90;;;19.90;99.90;;;;;;5074984;28;20966;-73
2022/06/06 09:34:23;;;;;;;1999.90;999.90;;;20.10;99.90;;;;;;4993152;28;20800;-72
2022/06/06 09:36:55;;;;;;;1999.90;999.90;;;20.20;99.90;;;;;;5113532;22;21162;-72
2022/06/06 09:39:23;;;;;;;1999.90;999.90;;;20.20;99.90;;;;;;5076740;28;20454;-72
2022/06/06 09:42:07;;;;;;;1999.90;999.90;;;20.20;99.90;;;;;;5076375;28;20395;-72
2022/06/06 09:44:56;;;;;;;1999.90;999.90;;;20.20;99.90;;;;;;5075875;28;20399;-72
2022/06/06 09:47:38;;;;;;;1999.90;999.90;;;19.90;99.90;;;;;;5075520;28;20438;-72
2022/06/06 09:50:27;;;;;;;1999.90;999.90;;;19.60;99.90;;;;;;5075482;28;20454;-72
2022/06/06 09:52:58;;;;;;;1999.90;999.90;;;19.50;99.90;;;;;;5075642;28;20479;-73
2022/06/06 10:01:43;;;;;;;1999.90;999.90;;;19.40;99.90;;;;;;5075861;28;20457;-71
2022/06/06 10:04:17;;;;;;;1999.90;999.90;;;19.60;99.90;;;;;;5075675;28;20401;-72
2022/06/06 10:07:13;;;;;;;1999.90;999.90;;;19.80;99.90;;;;;;5075870;28;20773;-72
2022/06/06 10:10:05;;;;;;;1999.90;999.90;;;19.70;99.90;;;;;;5075476;28;20446;-72
2022/06/06 10:12:50;;;;;;;1999.90;999.90;;;19.60;99.90;;;;;;5074813;28;20924;-72
2022/06/06 10:15:38;;;;;;;1999.90;999.90;;;19.70;99.90;;;;;;5075420;28;20486;-71
2022/06/06 10:18:25;;;;;;;1999.90;999.90;;;19.90;99.90;;;;;;5075093;28;20455;-72
2022/06/06 10:21:15;;;;;;;1999.90;999.90;;;20.20;99.90;;;;;;5074328;28;20447;-71
2022/06/06 10:23:49;;;;;;;1999.90;999.90;;;20.50;99.90;;;;;;5075488;28;20413;-72
2022/06/06 10:26:31;;;;;;;1999.90;999.90;;;20.60;99.90;;;;;;5075307;28;20430;-72
2022/06/06 10:29:22;;;;;;;1999.90;999.90;;;20.60;99.90;;;;;;5075232;28;20437;-70
2022/06/06 10:32:00;;;;;;;1999.90;999.90;;;20.40;99.90;;;;;;5075332;28;20405;-72
2022/06/06 10:35:02;;;;;;;1999.90;999.90;;;20.30;99.90;;;;;;5074909;28;20445;-73
2022/06/06 10:38:05;;;;;;;1999.90;999.90;;;20.30;99.90;;;;;;5074959;28;20522;-72
2022/06/06 10:41:17;;;;;;;1999.90;999.90;;;20.30;99.90;;;;;;5074946;28;20503;-72
2022/06/06 10:44:03;;;;;;;1999.90;999.90;;;20.30;99.90;;;;;;4993453;28;21088;-72
2022/06/06 10:46:57;;;;;;;1999.90;999.90;;;20.30;99.90;;;;;;4993441;28;20432;-71
2022/06/06 10:49:42;;;;;;;1999.90;999.90;;;20.30;99.90;;;;;;5058253;28;20458;-72
2022/06/06 10:52:27;;;;;;;1999.90;999.90;;;20.30;99.90;;;;;;5076042;28;20440;-72
2022/06/06 10:55:15;;;;;;;1999.90;999.90;;;20.60;99.90;;;;;;5075399;28;20410;-73
2022/06/06 10:58:00;;;;;;;1999.90;999.90;;;20.80;99.90;;;;;;5036783;28;20448;-72
2022/06/06 11:00:44;;;;;;;1999.90;999.90;;;20.90;99.90;;;;;;5074456;28;20479;-72
2022/06/06 11:03:48;;;;;;;1999.90;999.90;;;20.90;99.90;;;;;;5073655;28;20384;-72
2022/06/06 11:06:35;;;;;;;1999.90;999.90;;;20.80;99.90;;;;;;5074749;28;20929;-72
2022/06/06 11:09:25;;;;;;;1999.90;999.90;;;20.90;99.90;;;;;;5074947;28;20397;-72
2022/06/06 11:12:12;;;;;;;1999.90;999.90;;;20.90;99.90;;;;;;5074256;28;20527;-73
2022/06/06 11:14:44;;;;;;;1999.90;999.90;;;21.00;99.90;;;;;;5072592;28;20386;-71
2022/06/06 11:17:27;;;;;;;1999.90;999.90;;;21.00;99.90;;;;;;5072767;28;20490;-71
2022/06/06 11:20:43;;;;;;;1999.90;999.90;;;21.10;99.90;;;;;;5072814;28;20600;-71
2022/06/06 11:23:25;;;;;;;1999.90;999.90;;;21.20;99.90;;;;;;5038608;28;20965;-71
2022/06/06 11:26:03;;;;;;;1999.90;999.90;;;21.30;99.90;;;;;;5072355;28;20404;-71
2022/06/06 11:29:11;;;;;;;1999.90;999.90;;;21.30;99.90;;;;;;5072726;28;20437;-71
2022/06/06 11:31:50;;;;;;;1999.90;999.90;;;21.40;99.90;;;;;;5029191;28;20413;-73
2022/06/06 11:34:47;;;;;;;1999.90;999.90;;;21.40;99.90;;;;;;5072962;28;20369;-72
2022/06/06 11:38:22;;;;;;;1999.90;999.90;;;21.70;99.90;;;;;;5073636;28;20508;-72
2022/06/06 11:41:15;;;;;;;1999.90;999.90;;;21.90;99.90;;;;;;4992143;28;20399;-72
2022/06/06 11:43:49;;;;;;;1999.90;999.90;;;22.10;99.90;;;;;;4991657;28;20419;-72
2022/06/06 11:46:45;;;;;;;1999.90;999.90;;;22.40;99.90;;;;;;5066472;28;20408;-73
2022/06/06 11:49:22;;;;;;;1999.90;999.90;;;22.70;99.90;;;;;;5073445;28;20446;-71
2022/06/06 11:52:06;;;;;;;1999.90;999.90;;;22.60;99.90;;;;;;5073639;28;21090;-73
2022/06/06 11:54:40;;;;;;;1999.90;999.90;;;22.50;99.90;;;;;;5073765;28;20394;-73
2022/06/06 11:57:24;;;;;;;1999.90;999.90;;;22.20;99.90;;;;;;5073164;28;20411;-73
2022/06/06 12:00:21;;;;;;;1999.90;999.90;;;22.00;99.90;;;;;;5073162;28;20405;-73
2022/06/06 12:03:01;;;;;;;1999.90;999.90;;;21.70;99.90;;;;;;5073483;28;20494;-73
2022/06/06 12:05:30;;;;;;;1999.90;999.90;;;21.40;99.90;;;;;;5073143;28;20394;-73
2022/06/06 12:08:23;;;;;;;1999.90;999.90;;;21.50;99.90;;;;;;5073615;28;20401;-72
2022/06/06 12:10:55;;;;;;;1999.90;999.90;;;21.80;99.90;;;;;;5073184;28;20451;-72
2022/06/06 12:13:41;;;;;;;1999.90;999.90;;;22.60;99.90;;;;;;5073679;28;20436;-73
2022/06/06 12:16:25;;;;;;;1999.90;999.90;;;22.80;99.90;;;;;;5073664;28;20415;-73
2022/06/06 12:19:03;;;;;;;1999.90;999.90;;;22.70;99.90;;;;;;5074046;28;20798;-73
2022/06/06 12:21:54;;;;;;;1999.90;999.90;;;22.90;99.90;;;;;;5073886;28;20379;-73
2022/06/06 12:24:34;;;;;;;1999.90;999.90;;;23.50;99.90;;;;;;5073291;28;20929;-72
2022/06/06 12:27:21;;;;;;;1999.90;999.90;;;23.70;99.90;;;;;;5074796;28;20758;-72
2022/06/06 12:29:56;;;;;;;1999.90;999.90;;;24.00;99.90;;;;;;5071747;28;20479;-71
2022/06/06 12:32:37;;;;;;;1999.90;999.90;;;24.10;97.60;;;;;;5071882;28;20458;-72
2022/06/06 12:35:39;;;;;;;1999.90;999.90;;;24.10;99.50;;;;;;5071527;28;20401;-71
2022/06/06 12:38:08;;;;;;;1999.90;999.90;;;24.50;99.70;;;;;;5058383;28;20439;-71
2022/06/06 12:40:55;;;;;;;1999.90;999.90;;;24.70;99.10;;;;;;5071726;28;20380;-71
2022/06/06 12:43:23;;;;;;;1999.90;999.90;;;25.10;96.90;;;;;;5071676;28;20466;-71
2022/06/06 12:45:56;;;;;;;1999.90;999.90;;;25.10;95.60;;;;;;5071341;28;20407;-71
2022/06/06 12:48:47;;;;;;;1999.90;999.90;;;25.00;92.30;;;;;;5075640;28;20409;-71
2022/06/06 12:51:26;;;;;;;1999.90;999.90;;;25.50;87.60;;;;;;5075717;28;20452;-71
2022/06/06 12:54:30;;;;;;;1999.90;999.90;;;25.30;78.50;;;;;;5075610;28;20431;-71
2022/06/06 12:57:02;;;;;;;1999.90;999.90;;;25.00;80.20;;;;;;5038582;28;20434;-71
2022/06/06 12:59:54;;;;;;;1999.90;999.90;;;24.40;79.00;;;;;;5075525;28;20774;-71
2022/06/06 13:02:44;;;;;;;1999.90;999.90;;;23.80;88.50;;;;;;5075530;28;20387;-71
2022/06/06 13:05:37;;;;;;;1999.90;999.90;;;23.90;90.40;;;;;;5075126;28;20463;-71
2022/06/06 13:08:21;;;;;;;1999.90;999.90;;;24.40;82.60;;;;;;5075344;28;20407;-72
2022/06/06 13:11:12;;;;;;;1999.90;999.90;;;24.50;80.80;;;;;;5075211;28;20427;-72
2022/06/06 13:14:01;;;;;;;1999.90;999.90;;;24.80;80.00;;;;;;5075224;28;20735;-71
2022/06/06 13:16:48;;;;;;;1999.90;999.90;;;24.20;81.90;;;;;;5075133;28;20431;-71
2022/06/06 13:19:48;;;;;;;1999.90;999.90;;;24.50;77.00;;;;;;5075114;28;20427;-72
2022/06/06 13:22:48;;;;;;;1999.90;999.90;;;25.10;77.20;;;;;;5057325;28;20928;-71
2022/06/06 13:25:24;;;;;;;1999.90;999.90;;;25.80;67.80;;;;;;5074724;28;20376;-71
2022/06/06 13:27:56;;;;;;;1999.90;999.90;;;26.50;62.20;;;;;;5074916;28;20420;-71